sensor_id;sensor_type;location;lat;lon;timestamp;P1;durP1;ratioP1;P2;durP2;ratioP2
5898;SDS011;2975;50.956;6.962;2022-09-12T00:00:45;32.87;;;18.93;;
5898;SDS011;2975;50.956;6.962;2022-09-12T00:03:10;35.47;;;18.30;;
5898;SDS011;2975;50.956;6.962;2022-09-12T00:05:43;30.87;;;18.57;;
5898;SDS011;2975;50.956;6.962;2022-09-12T00:08:09;33.73;;;19.43;;
5898;SDS011;2975;50.956;6.962;2022-09-12T00:10:36;35.50;;;18.40;;
5898;SDS011;2975;50.956;6.962;2022-09-12T00:13:03;35.10;;;18.13;;
5898;SDS011;2975;50.956;6.962;2022-09-12T00:15:29;36.40;;;19.70;;
5898;SDS011;2975;50.956;6.962;2022-09-12T00:17:55;34.37;;;18.57;;
5898;SDS011;2975;50.956;6.962;2022-09-12T00:20:20;29.73;;;18.27;;
5898;SDS011;2975;50.956;6.962;2022-09-12T00:22:46;33.73;;;19.23;;
5898;SDS011;2975;50.956;6.962;2022-09-12T00:25:12;36.83;;;18.53;;
5898;SDS011;2975;50.956;6.962;2022-09-12T00:27:37;35.87;;;18.73;;
5898;SDS011;2975;50.956;6.962;2022-09-12T00:30:03;34.40;;;18.80;;
5898;SDS011;2975;50.956;6.962;2022-09-12T00:32:29;39.27;;;19.13;;
5898;SDS011;2975;50.956;6.962;2022-09-12T00:34:55;33.80;;;18.63;;
5898;SDS011;2975;50.956;6.962;2022-09-12T00:37:20;31.90;;;18.27;;
5898;SDS011;2975;50.956;6.962;2022-09-12T00:39:46;33.10;;;17.60;;
5898;SDS011;2975;50.956;6.962;2022-09-12T00:42:12;31.27;;;18.60;;
5898;SDS011;2975;50.956;6.962;2022-09-12T00:47:04;30.30;;;17.80;;
5898;SDS011;2975;50.956;6.962;2022-09-12T00:52:12;31.73;;;16.77;;
5898;SDS011;2975;50.956;6.962;2022-09-12T00:54:44;30.70;;;18.27;;
5898;SDS011;2975;50.956;6.962;2022-09-12T00:57:14;32.03;;;16.67;;
5898;SDS011;2975;50.956;6.962;2022-09-12T00:59:54;29.47;;;17.70;;
5898;SDS011;2975;50.956;6.962;2022-09-12T01:02:23;38.70;;;18.00;;
5898;SDS011;2975;50.956;6.962;2022-09-12T01:04:49;34.17;;;17.43;;
5898;SDS011;2975;50.956;6.962;2022-09-12T01:07:15;34.63;;;18.90;;
5898;SDS011;2975;50.956;6.962;2022-09-12T01:09:41;33.53;;;18.20;;
5898;SDS011;2975;50.956;6.962;2022-09-12T01:12:09;34.83;;;18.20;;
5898;SDS011;2975;50.956;6.962;2022-09-12T01:14:36;33.07;;;17.40;;
5898;SDS011;2975;50.956;6.962;2022-09-12T01:17:02;29.77;;;17.53;;
5898;SDS011;2975;50.956;6.962;2022-09-12T01:19:49;33.27;;;18.10;;
5898;SDS011;2975;50.956;6.962;2022-09-12T01:31:17;37.97;;;18.50;;
5898;SDS011;2975;50.956;6.962;2022-09-12T01:34:24;30.23;;;17.03;;
5898;SDS011;2975;50.956;6.962;2022-09-12T01:39:26;31.60;;;17.47;;
5898;SDS011;2975;50.956;6.962;2022-09-12T01:50:39;31.43;;;16.30;;
5898;SDS011;2975;50.956;6.962;2022-09-12T01:53:16;27.47;;;16.43;;
5898;SDS011;2975;50.956;6.962;2022-09-12T01:58:50;25.87;;;15.83;;
5898;SDS011;2975;50.956;6.962;2022-09-12T02:01:26;30.93;;;16.53;;
5898;SDS011;2975;50.956;6.962;2022-09-12T02:06:54;25.73;;;15.93;;
5898;SDS011;2975;50.956;6.962;2022-09-12T02:09:34;29.23;;;15.87;;
5898;SDS011;2975;50.956;6.962;2022-09-12T02:12:06;27.67;;;17.40;;
5898;SDS011;2975;50.956;6.962;2022-09-12T02:14:36;26.23;;;15.80;;
5898;SDS011;2975;50.956;6.962;2022-09-12T02:17:05;26.63;;;15.93;;
5898;SDS011;2975;50.956;6.962;2022-09-12T02:19:36;27.83;;;15.60;;
5898;SDS011;2975;50.956;6.962;2022-09-12T02:22:07;27.20;;;15.33;;
5898;SDS011;2975;50.956;6.962;2022-09-12T02:24:39;30.47;;;15.93;;
5898;SDS011;2975;50.956;6.962;2022-09-12T02:27:14;26.70;;;15.17;;
5898;SDS011;2975;50.956;6.962;2022-09-12T02:29:40;25.53;;;14.30;;
5898;SDS011;2975;50.956;6.962;2022-09-12T02:32:11;24.30;;;15.63;;
5898;SDS011;2975;50.956;6.962;2022-09-12T02:34:52;27.40;;;15.47;;
5898;SDS011;2975;50.956;6.962;2022-09-12T02:40:19;22.50;;;13.50;;
5898;SDS011;2975;50.956;6.962;2022-09-12T02:42:46;23.67;;;14.37;;
5898;SDS011;2975;50.956;6.962;2022-09-12T02:45:12;28.33;;;15.87;;
5898;SDS011;2975;50.956;6.962;2022-09-12T02:50:25;23.97;;;14.13;;
5898;SDS011;2975;50.956;6.962;2022-09-12T02:52:51;26.63;;;14.80;;
5898;SDS011;2975;50.956;6.962;2022-09-12T02:55:18;25.40;;;14.90;;
5898;SDS011;2975;50.956;6.962;2022-09-12T02:57:44;22.60;;;14.63;;
5898;SDS011;2975;50.956;6.962;2022-09-12T03:00:10;24.90;;;14.20;;
5898;SDS011;2975;50.956;6.962;2022-09-12T03:05:15;24.53;;;15.37;;
5898;SDS011;2975;50.956;6.962;2022-09-12T03:08:23;25.07;;;13.70;;
5898;SDS011;2975;50.956;6.962;2022-09-12T03:11:02;25.80;;;13.23;;
5898;SDS011;2975;50.956;6.962;2022-09-12T03:14:18;26.80;;;13.67;;
5898;SDS011;2975;50.956;6.962;2022-09-12T03:20:08;23.90;;;13.47;;
5898;SDS011;2975;50.956;6.962;2022-09-12T03:25:28;21.07;;;13.03;;
5898;SDS011;2975;50.956;6.962;2022-09-12T03:28:08;22.90;;;13.20;;
5898;SDS011;2975;50.956;6.962;2022-09-12T03:30:44;19.57;;;13.70;;
5898;SDS011;2975;50.956;6.962;2022-09-12T03:33:12;22.67;;;13.67;;
5898;SDS011;2975;50.956;6.962;2022-09-12T03:35:44;23.10;;;13.20;;
5898;SDS011;2975;50.956;6.962;2022-09-12T03:38:10;20.90;;;12.37;;
5898;SDS011;2975;50.956;6.962;2022-09-12T03:40:37;28.00;;;13.57;;
5898;SDS011;2975;50.956;6.962;2022-09-12T03:43:03;20.93;;;12.07;;
5898;SDS011;2975;50.956;6.962;2022-09-12T03:45:30;23.43;;;12.67;;
5898;SDS011;2975;50.956;6.962;2022-09-12T03:47:55;19.33;;;11.93;;
5898;SDS011;2975;50.956;6.962;2022-09-12T03:50:22;20.73;;;11.80;;
5898;SDS011;2975;50.956;6.962;2022-09-12T03:52:47;24.57;;;12.20;;
5898;SDS011;2975;50.956;6.962;2022-09-12T03:55:13;20.83;;;12.83;;
5898;SDS011;2975;50.956;6.962;2022-09-12T03:57:39;21.03;;;12.37;;
5898;SDS011;2975;50.956;6.962;2022-09-12T04:00:05;20.13;;;12.03;;
5898;SDS011;2975;50.956;6.962;2022-09-12T04:02:32;17.33;;;11.80;;
5898;SDS011;2975;50.956;6.962;2022-09-12T04:04:58;20.23;;;11.50;;
5898;SDS011;2975;50.956;6.962;2022-09-12T04:07:24;18.47;;;12.37;;
5898;SDS011;2975;50.956;6.962;2022-09-12T04:09:50;20.90;;;11.73;;
5898;SDS011;2975;50.956;6.962;2022-09-12T04:12:17;17.57;;;11.83;;
5898;SDS011;2975;50.956;6.962;2022-09-12T04:14:43;17.53;;;11.90;;
5898;SDS011;2975;50.956;6.962;2022-09-12T04:17:08;18.03;;;11.43;;
5898;SDS011;2975;50.956;6.962;2022-09-12T04:19:34;15.87;;;11.70;;
5898;SDS011;2975;50.956;6.962;2022-09-12T04:21:59;19.77;;;11.67;;
5898;SDS011;2975;50.956;6.962;2022-09-12T04:24:25;18.33;;;11.27;;
5898;SDS011;2975;50.956;6.962;2022-09-12T04:26:51;19.30;;;11.87;;
5898;SDS011;2975;50.956;6.962;2022-09-12T04:29:17;16.67;;;11.30;;
5898;SDS011;2975;50.956;6.962;2022-09-12T04:31:42;21.40;;;10.93;;
5898;SDS011;2975;50.956;6.962;2022-09-12T04:34:08;15.20;;;9.87;;
5898;SDS011;2975;50.956;6.962;2022-09-12T04:36:34;16.30;;;10.80;;
5898;SDS011;2975;50.956;6.962;2022-09-12T04:39:00;17.87;;;10.97;;
5898;SDS011;2975;50.956;6.962;2022-09-12T04:41:31;15.60;;;10.43;;
5898;SDS011;2975;50.956;6.962;2022-09-12T04:43:59;17.80;;;11.50;;
5898;SDS011;2975;50.956;6.962;2022-09-12T04:46:29;18.07;;;10.57;;
5898;SDS011;2975;50.956;6.962;2022-09-12T04:48:56;15.13;;;11.43;;
5898;SDS011;2975;50.956;6.962;2022-09-12T04:51:26;17.40;;;10.57;;
5898;SDS011;2975;50.956;6.962;2022-09-12T04:53:54;17.77;;;10.60;;
5898;SDS011;2975;50.956;6.962;2022-09-12T04:56:22;15.63;;;11.07;;
5898;SDS011;2975;50.956;6.962;2022-09-12T04:58:48;15.60;;;10.60;;
5898;SDS011;2975;50.956;6.962;2022-09-12T05:01:15;15.70;;;11.03;;
5898;SDS011;2975;50.956;6.962;2022-09-12T05:03:42;16.73;;;10.40;;
5898;SDS011;2975;50.956;6.962;2022-09-12T05:06:11;16.57;;;10.07;;
5898;SDS011;2975;50.956;6.962;2022-09-12T05:08:38;17.43;;;10.60;;
5898;SDS011;2975;50.956;6.962;2022-09-12T05:11:05;13.90;;;9.60;;
5898;SDS011;2975;50.956;6.962;2022-09-12T05:13:33;16.03;;;10.37;;
5898;SDS011;2975;50.956;6.962;2022-09-12T05:15:59;16.20;;;10.33;;
5898;SDS011;2975;50.956;6.962;2022-09-12T05:18:26;15.27;;;10.60;;
5898;SDS011;2975;50.956;6.962;2022-09-12T05:20:52;15.33;;;10.57;;
5898;SDS011;2975;50.956;6.962;2022-09-12T05:23:18;16.73;;;10.63;;
5898;SDS011;2975;50.956;6.962;2022-09-12T05:25:51;17.77;;;11.10;;
5898;SDS011;2975;50.956;6.962;2022-09-12T05:28:18;13.83;;;10.17;;
5898;SDS011;2975;50.956;6.962;2022-09-12T05:30:45;17.10;;;9.57;;
5898;SDS011;2975;50.956;6.962;2022-09-12T05:33:10;17.10;;;10.33;;
5898;SDS011;2975;50.956;6.962;2022-09-12T05:35:37;13.10;;;9.63;;
5898;SDS011;2975;50.956;6.962;2022-09-12T05:38:03;13.90;;;9.03;;
5898;SDS011;2975;50.956;6.962;2022-09-12T05:40:30;14.33;;;9.07;;
5898;SDS011;2975;50.956;6.962;2022-09-12T05:42:56;12.30;;;7.57;;
5898;SDS011;2975;50.956;6.962;2022-09-12T05:45:22;12.53;;;8.37;;
5898;SDS011;2975;50.956;6.962;2022-09-12T05:47:48;12.47;;;8.27;;
5898;SDS011;2975;50.956;6.962;2022-09-12T05:50:13;13.93;;;9.07;;
5898;SDS011;2975;50.956;6.962;2022-09-12T05:52:39;13.30;;;8.57;;
5898;SDS011;2975;50.956;6.962;2022-09-12T05:55:05;12.57;;;7.70;;
5898;SDS011;2975;50.956;6.962;2022-09-12T05:57:31;12.93;;;8.87;;
5898;SDS011;2975;50.956;6.962;2022-09-12T05:59:57;11.90;;;8.67;;
5898;SDS011;2975;50.956;6.962;2022-09-12T06:02:23;11.80;;;7.73;;
5898;SDS011;2975;50.956;6.962;2022-09-12T06:04:49;13.03;;;8.23;;
5898;SDS011;2975;50.956;6.962;2022-09-12T06:07:14;11.77;;;8.20;;
5898;SDS011;2975;50.956;6.962;2022-09-12T06:09:40;13.37;;;8.97;;
5898;SDS011;2975;50.956;6.962;2022-09-12T06:12:06;15.00;;;7.97;;
5898;SDS011;2975;50.956;6.962;2022-09-12T06:14:32;12.97;;;8.37;;
5898;SDS011;2975;50.956;6.962;2022-09-12T06:16:58;10.50;;;7.60;;
5898;SDS011;2975;50.956;6.962;2022-09-12T06:19:24;12.20;;;8.43;;
5898;SDS011;2975;50.956;6.962;2022-09-12T06:21:51;11.20;;;8.00;;
5898;SDS011;2975;50.956;6.962;2022-09-12T06:24:18;10.57;;;8.03;;
5898;SDS011;2975;50.956;6.962;2022-09-12T06:26:45;13.57;;;7.77;;
5898;SDS011;2975;50.956;6.962;2022-09-12T06:29:11;9.50;;;7.60;;
5898;SDS011;2975;50.956;6.962;2022-09-12T06:31:38;15.30;;;7.67;;
5898;SDS011;2975;50.956;6.962;2022-09-12T06:34:09;15.93;;;8.83;;
5898;SDS011;2975;50.956;6.962;2022-09-12T06:36:41;13.13;;;8.47;;
5898;SDS011;2975;50.956;6.962;2022-09-12T06:39:12;12.07;;;7.37;;
5898;SDS011;2975;50.956;6.962;2022-09-12T06:41:42;11.03;;;7.83;;
5898;SDS011;2975;50.956;6.962;2022-09-12T06:44:10;11.87;;;7.87;;
5898;SDS011;2975;50.956;6.962;2022-09-12T06:46:38;12.80;;;7.57;;
5898;SDS011;2975;50.956;6.962;2022-09-12T06:49:03;16.00;;;8.07;;
5898;SDS011;2975;50.956;6.962;2022-09-12T06:51:29;12.30;;;8.37;;
5898;SDS011;2975;50.956;6.962;2022-09-12T06:53:55;14.57;;;7.93;;
5898;SDS011;2975;50.956;6.962;2022-09-12T06:56:22;13.17;;;7.70;;
5898;SDS011;2975;50.956;6.962;2022-09-12T06:58:49;13.43;;;8.23;;
5898;SDS011;2975;50.956;6.962;2022-09-12T07:03:49;12.27;;;7.40;;
5898;SDS011;2975;50.956;6.962;2022-09-12T07:06:17;13.37;;;7.60;;
5898;SDS011;2975;50.956;6.962;2022-09-12T07:08:44;12.33;;;8.17;;
5898;SDS011;2975;50.956;6.962;2022-09-12T07:11:12;11.07;;;7.50;;
5898;SDS011;2975;50.956;6.962;2022-09-12T07:13:49;13.03;;;7.97;;
5898;SDS011;2975;50.956;6.962;2022-09-12T07:16:16;12.27;;;7.40;;
5898;SDS011;2975;50.956;6.962;2022-09-12T07:18:43;12.23;;;7.60;;
5898;SDS011;2975;50.956;6.962;2022-09-12T07:21:10;11.20;;;7.90;;
5898;SDS011;2975;50.956;6.962;2022-09-12T07:23:37;14.40;;;7.77;;
5898;SDS011;2975;50.956;6.962;2022-09-12T07:26:04;8.83;;;7.30;;
5898;SDS011;2975;50.956;6.962;2022-09-12T07:28:31;11.03;;;7.60;;
5898;SDS011;2975;50.956;6.962;2022-09-12T07:31:03;11.33;;;7.37;;
5898;SDS011;2975;50.956;6.962;2022-09-12T07:33:37;11.07;;;8.23;;
5898;SDS011;2975;50.956;6.962;2022-09-12T07:36:04;10.70;;;7.60;;
5898;SDS011;2975;50.956;6.962;2022-09-12T07:38:31;10.30;;;7.63;;
5898;SDS011;2975;50.956;6.962;2022-09-12T07:40:57;13.80;;;8.37;;
5898;SDS011;2975;50.956;6.962;2022-09-12T07:43:23;12.10;;;7.40;;
5898;SDS011;2975;50.956;6.962;2022-09-12T07:45:55;12.10;;;7.60;;
5898;SDS011;2975;50.956;6.962;2022-09-12T07:48:21;12.10;;;7.53;;
5898;SDS011;2975;50.956;6.962;2022-09-12T07:50:47;12.30;;;8.10;;
5898;SDS011;2975;50.956;6.962;2022-09-12T07:53:24;14.53;;;8.37;;
5898;SDS011;2975;50.956;6.962;2022-09-12T07:55:53;12.57;;;7.70;;
5898;SDS011;2975;50.956;6.962;2022-09-12T07:58:20;13.20;;;7.70;;
5898;SDS011;2975;50.956;6.962;2022-09-12T08:00:46;12.97;;;7.60;;
5898;SDS011;2975;50.956;6.962;2022-09-12T08:03:12;8.70;;;7.27;;
5898;SDS011;2975;50.956;6.962;2022-09-12T08:05:38;12.80;;;7.43;;
5898;SDS011;2975;50.956;6.962;2022-09-12T08:08:03;9.50;;;7.70;;
5898;SDS011;2975;50.956;6.962;2022-09-12T08:10:29;11.63;;;8.13;;
5898;SDS011;2975;50.956;6.962;2022-09-12T08:12:56;11.30;;;7.93;;
5898;SDS011;2975;50.956;6.962;2022-09-12T08:15:22;9.80;;;6.87;;
5898;SDS011;2975;50.956;6.962;2022-09-12T08:17:47;11.13;;;7.53;;
5898;SDS011;2975;50.956;6.962;2022-09-12T08:20:13;9.67;;;7.57;;
5898;SDS011;2975;50.956;6.962;2022-09-12T08:22:39;10.43;;;7.47;;
5898;SDS011;2975;50.956;6.962;2022-09-12T08:25:04;10.00;;;7.53;;
5898;SDS011;2975;50.956;6.962;2022-09-12T08:27:30;9.83;;;8.07;;
5898;SDS011;2975;50.956;6.962;2022-09-12T08:29:56;10.33;;;7.27;;
5898;SDS011;2975;50.956;6.962;2022-09-12T08:32:22;12.57;;;7.90;;
5898;SDS011;2975;50.956;6.962;2022-09-12T08:34:47;11.10;;;7.20;;
5898;SDS011;2975;50.956;6.962;2022-09-12T08:37:13;9.90;;;7.03;;
5898;SDS011;2975;50.956;6.962;2022-09-12T08:39:39;12.77;;;7.03;;
5898;SDS011;2975;50.956;6.962;2022-09-12T08:42:05;12.57;;;6.73;;
5898;SDS011;2975;50.956;6.962;2022-09-12T08:44:38;13.40;;;7.87;;
5898;SDS011;2975;50.956;6.962;2022-09-12T08:49:44;11.37;;;7.33;;
5898;SDS011;2975;50.956;6.962;2022-09-12T08:55:36;8.77;;;6.40;;
5898;SDS011;2975;50.956;6.962;2022-09-12T08:58:16;9.00;;;6.57;;
5898;SDS011;2975;50.956;6.962;2022-09-12T09:15:01;7.67;;;6.43;;
5898;SDS011;2975;50.956;6.962;2022-09-12T09:25:18;8.33;;;6.00;;
5898;SDS011;2975;50.956;6.962;2022-09-12T09:30:36;11.03;;;6.33;;
5898;SDS011;2975;50.956;6.962;2022-09-12T09:33:03;9.27;;;6.30;;
5898;SDS011;2975;50.956;6.962;2022-09-12T09:35:36;9.80;;;5.37;;
5898;SDS011;2975;50.956;6.962;2022-09-12T09:38:17;6.83;;;5.97;;
5898;SDS011;2975;50.956;6.962;2022-09-12T09:43:46;8.70;;;5.60;;
5898;SDS011;2975;50.956;6.962;2022-09-12T09:46:12;8.90;;;5.10;;
5898;SDS011;2975;50.956;6.962;2022-09-12T09:48:42;8.73;;;5.27;;
5898;SDS011;2975;50.956;6.962;2022-09-12T09:51:11;6.73;;;4.67;;
5898;SDS011;2975;50.956;6.962;2022-09-12T09:56:29;6.60;;;5.37;;
5898;SDS011;2975;50.956;6.962;2022-09-12T09:59:11;5.93;;;4.60;;
5898;SDS011;2975;50.956;6.962;2022-09-12T10:01:43;8.73;;;4.60;;
5898;SDS011;2975;50.956;6.962;2022-09-12T10:04:15;7.53;;;4.73;;
5898;SDS011;2975;50.956;6.962;2022-09-12T10:06:42;5.30;;;4.17;;
5898;SDS011;2975;50.956;6.962;2022-09-12T10:11:37;6.60;;;4.70;;
5898;SDS011;2975;50.956;6.962;2022-09-12T10:14:03;4.77;;;4.27;;
5898;SDS011;2975;50.956;6.962;2022-09-12T10:16:30;7.13;;;4.83;;
5898;SDS011;2975;50.956;6.962;2022-09-12T10:18:58;10.87;;;4.70;;
5898;SDS011;2975;50.956;6.962;2022-09-12T10:24:16;4.20;;;3.80;;
5898;SDS011;2975;50.956;6.962;2022-09-12T10:26:48;5.78;;;3.85;;
5898;SDS011;2975;50.956;6.962;2022-09-12T10:29:32;4.45;;;4.05;;
5898;SDS011;2975;50.956;6.962;2022-09-12T10:32:01;5.90;;;4.50;;
5898;SDS011;2975;50.956;6.962;2022-09-12T10:34:40;4.43;;;3.67;;
5898;SDS011;2975;50.956;6.962;2022-09-12T10:40:12;6.20;;;4.00;;
5898;SDS011;2975;50.956;6.962;2022-09-12T10:47:51;4.53;;;3.85;;
5898;SDS011;2975;50.956;6.962;2022-09-12T10:50:19;6.95;;;4.50;;
5898;SDS011;2975;50.956;6.962;2022-09-12T10:52:46;5.05;;;4.00;;
5898;SDS011;2975;50.956;6.962;2022-09-12T10:55:14;5.40;;;3.40;;
5898;SDS011;2975;50.956;6.962;2022-09-12T11:00:24;3.85;;;3.45;;
5898;SDS011;2975;50.956;6.962;2022-09-12T11:03:00;3.47;;;2.83;;
5898;SDS011;2975;50.956;6.962;2022-09-12T11:05:44;4.13;;;2.38;;
5898;SDS011;2975;50.956;6.962;2022-09-12T11:14:21;3.70;;;2.33;;
5898;SDS011;2975;50.956;6.962;2022-09-12T11:22:42;5.43;;;2.10;;
5898;SDS011;2975;50.956;6.962;2022-09-12T11:25:35;1.80;;;1.70;;
5898;SDS011;2975;50.956;6.962;2022-09-12T11:28:24;1.55;;;1.45;;
5898;SDS011;2975;50.956;6.962;2022-09-12T11:33:40;1.70;;;1.50;;
5898;SDS011;2975;50.956;6.962;2022-09-12T11:36:16;1.85;;;1.75;;
5898;SDS011;2975;50.956;6.962;2022-09-12T11:39:02;1.65;;;1.55;;
5898;SDS011;2975;50.956;6.962;2022-09-12T11:41:56;2.10;;;1.70;;
5898;SDS011;2975;50.956;6.962;2022-09-12T11:44:34;6.25;;;2.08;;
5898;SDS011;2975;50.956;6.962;2022-09-12T11:47:04;5.00;;;1.90;;
5898;SDS011;2975;50.956;6.962;2022-09-12T11:49:35;2.10;;;1.90;;
5898;SDS011;2975;50.956;6.962;2022-09-12T11:52:21;2.17;;;1.98;;
5898;SDS011;2975;50.956;6.962;2022-09-12T11:54:52;1.88;;;1.77;;
5898;SDS011;2975;50.956;6.962;2022-09-12T11:57:28;2.83;;;1.80;;
5898;SDS011;2975;50.956;6.962;2022-09-12T12:00:18;2.05;;;1.75;;
5898;SDS011;2975;50.956;6.962;2022-09-12T12:02:59;2.10;;;1.90;;
5898;SDS011;2975;50.956;6.962;2022-09-12T12:05:43;2.25;;;2.00;;
5898;SDS011;2975;50.956;6.962;2022-09-12T12:08:21;2.53;;;2.33;;
5898;SDS011;2975;50.956;6.962;2022-09-12T12:10:55;1.80;;;1.70;;
5898;SDS011;2975;50.956;6.962;2022-09-12T12:18:38;2.17;;;1.70;;
5898;SDS011;2975;50.956;6.962;2022-09-12T12:29:35;2.10;;;1.90;;
5898;SDS011;2975;50.956;6.962;2022-09-12T12:36:55;2.03;;;1.92;;
5898;SDS011;2975;50.956;6.962;2022-09-12T12:42:07;2.00;;;1.80;;
5898;SDS011;2975;50.956;6.962;2022-09-12T12:52:31;2.40;;;2.17;;
5898;SDS011;2975;50.956;6.962;2022-09-12T12:55:12;2.55;;;2.00;;
5898;SDS011;2975;50.956;6.962;2022-09-12T12:57:50;2.40;;;1.70;;
5898;SDS011;2975;50.956;6.962;2022-09-12T13:05:38;4.05;;;1.83;;
5898;SDS011;2975;50.956;6.962;2022-09-12T13:08:07;2.10;;;1.98;;
5898;SDS011;2975;50.956;6.962;2022-09-12T13:10:40;3.08;;;1.95;;
5898;SDS011;2975;50.956;6.962;2022-09-12T13:16:35;2.00;;;1.85;;
5898;SDS011;2975;50.956;6.962;2022-09-12T13:19:06;2.28;;;2.03;;
5898;SDS011;2975;50.956;6.962;2022-09-12T13:22:03;3.60;;;2.17;;
5898;SDS011;2975;50.956;6.962;2022-09-12T13:24:28;2.42;;;2.28;;
5898;SDS011;2975;50.956;6.962;2022-09-12T13:26:55;2.33;;;2.13;;
5898;SDS011;2975;50.956;6.962;2022-09-12T13:29:22;2.53;;;2.13;;
5898;SDS011;2975;50.956;6.962;2022-09-12T13:31:51;2.03;;;1.92;;
5898;SDS011;2975;50.956;6.962;2022-09-12T13:34:23;3.28;;;2.13;;
5898;SDS011;2975;50.956;6.962;2022-09-12T13:37:15;3.17;;;2.33;;
5898;SDS011;2975;50.956;6.962;2022-09-12T13:39:55;5.10;;;2.10;;
5898;SDS011;2975;50.956;6.962;2022-09-12T13:45:24;1.92;;;1.80;;
5898;SDS011;2975;50.956;6.962;2022-09-12T13:47:52;2.83;;;2.63;;
5898;SDS011;2975;50.956;6.962;2022-09-12T13:50:25;3.10;;;1.90;;
5898;SDS011;2975;50.956;6.962;2022-09-12T13:53:00;3.50;;;2.00;;
5898;SDS011;2975;50.956;6.962;2022-09-12T13:58:00;4.68;;;2.35;;
5898;SDS011;2975;50.956;6.962;2022-09-12T14:00:28;2.45;;;2.08;;
5898;SDS011;2975;50.956;6.962;2022-09-12T14:02:56;3.05;;;2.10;;
5898;SDS011;2975;50.956;6.962;2022-09-12T14:05:43;2.75;;;2.10;;
5898;SDS011;2975;50.956;6.962;2022-09-12T14:08:19;2.42;;;2.20;;
5898;SDS011;2975;50.956;6.962;2022-09-12T14:10:47;2.50;;;2.30;;
5898;SDS011;2975;50.956;6.962;2022-09-12T14:13:15;2.70;;;2.47;;
5898;SDS011;2975;50.956;6.962;2022-09-12T14:15:43;3.05;;;2.08;;
5898;SDS011;2975;50.956;6.962;2022-09-12T14:18:20;2.58;;;2.38;;
5898;SDS011;2975;50.956;6.962;2022-09-12T14:20:47;2.90;;;2.08;;
5898;SDS011;2975;50.956;6.962;2022-09-12T14:25:47;4.40;;;2.50;;
5898;SDS011;2975;50.956;6.962;2022-09-12T14:28:15;5.40;;;2.38;;
5898;SDS011;2975;50.956;6.962;2022-09-12T14:31:30;3.45;;;2.30;;
5898;SDS011;2975;50.956;6.962;2022-09-12T14:38:43;2.10;;;1.90;;
5898;SDS011;2975;50.956;6.962;2022-09-12T14:41:13;2.40;;;2.20;;
5898;SDS011;2975;50.956;6.962;2022-09-12T14:43:55;2.33;;;2.17;;
5898;SDS011;2975;50.956;6.962;2022-09-12T14:46:29;1.92;;;1.80;;
5898;SDS011;2975;50.956;6.962;2022-09-12T14:48:59;2.60;;;2.40;;
5898;SDS011;2975;50.956;6.962;2022-09-12T14:59:41;2.85;;;2.47;;
5898;SDS011;2975;50.956;6.962;2022-09-12T15:04:48;2.83;;;2.63;;
5898;SDS011;2975;50.956;6.962;2022-09-12T15:09:39;2.75;;;2.45;;
5898;SDS011;2975;50.956;6.962;2022-09-12T15:12:07;2.80;;;2.50;;
5898;SDS011;2975;50.956;6.962;2022-09-12T15:14:34;2.17;;;2.03;;
5898;SDS011;2975;50.956;6.962;2022-09-12T15:17:00;3.15;;;2.47;;
5898;SDS011;2975;50.956;6.962;2022-09-12T15:19:25;4.85;;;2.42;;
5898;SDS011;2975;50.956;6.962;2022-09-12T15:21:51;3.63;;;2.58;;
5898;SDS011;2975;50.956;6.962;2022-09-12T15:24:16;2.90;;;2.35;;
5898;SDS011;2975;50.956;6.962;2022-09-12T15:26:42;2.72;;;2.50;;
5898;SDS011;2975;50.956;6.962;2022-09-12T15:29:08;3.85;;;2.30;;
5898;SDS011;2975;50.956;6.962;2022-09-12T15:31:33;2.53;;;2.30;;
5898;SDS011;2975;50.956;6.962;2022-09-12T15:33:59;2.47;;;2.28;;
5898;SDS011;2975;50.956;6.962;2022-09-12T15:36:26;2.70;;;2.05;;
5898;SDS011;2975;50.956;6.962;2022-09-12T15:38:53;3.00;;;2.60;;
5898;SDS011;2975;50.956;6.962;2022-09-12T15:43:57;2.45;;;2.15;;
5898;SDS011;2975;50.956;6.962;2022-09-12T15:46:23;4.93;;;2.22;;
5898;SDS011;2975;50.956;6.962;2022-09-12T15:48:49;2.67;;;2.25;;
5898;SDS011;2975;50.956;6.962;2022-09-12T15:51:16;2.50;;;2.30;;
5898;SDS011;2975;50.956;6.962;2022-09-12T15:53:43;2.50;;;2.30;;
5898;SDS011;2975;50.956;6.962;2022-09-12T15:56:10;2.45;;;2.30;;
5898;SDS011;2975;50.956;6.962;2022-09-12T15:58:38;2.50;;;2.30;;
5898;SDS011;2975;50.956;6.962;2022-09-12T16:01:05;4.13;;;2.75;;
5898;SDS011;2975;50.956;6.962;2022-09-12T16:03:30;3.90;;;2.28;;
5898;SDS011;2975;50.956;6.962;2022-09-12T16:05:57;2.47;;;2.10;;
5898;SDS011;2975;50.956;6.962;2022-09-12T16:08:28;3.40;;;2.40;;
5898;SDS011;2975;50.956;6.962;2022-09-12T16:10:59;2.35;;;2.15;;
5898;SDS011;2975;50.956;6.962;2022-09-12T16:13:27;3.30;;;2.05;;
5898;SDS011;2975;50.956;6.962;2022-09-12T16:15:56;2.85;;;2.15;;
5898;SDS011;2975;50.956;6.962;2022-09-12T16:18:23;4.13;;;2.33;;
5898;SDS011;2975;50.956;6.962;2022-09-12T16:20:52;2.33;;;2.10;;
5898;SDS011;2975;50.956;6.962;2022-09-12T16:23:18;4.10;;;2.30;;
5898;SDS011;2975;50.956;6.962;2022-09-12T16:25:44;4.32;;;2.67;;
5898;SDS011;2975;50.956;6.962;2022-09-12T16:28:10;2.53;;;1.90;;
5898;SDS011;2975;50.956;6.962;2022-09-12T16:30:36;4.20;;;2.33;;
5898;SDS011;2975;50.956;6.962;2022-09-12T16:33:01;3.38;;;2.47;;
5898;SDS011;2975;50.956;6.962;2022-09-12T16:35:27;2.78;;;2.58;;
5898;SDS011;2975;50.956;6.962;2022-09-12T16:37:55;3.80;;;2.20;;
5898;SDS011;2975;50.956;6.962;2022-09-12T16:40:21;2.40;;;2.20;;
5898;SDS011;2975;50.956;6.962;2022-09-12T16:42:47;2.45;;;2.20;;
5898;SDS011;2975;50.956;6.962;2022-09-12T16:45:13;3.35;;;2.40;;
5898;SDS011;2975;50.956;6.962;2022-09-12T16:47:38;2.25;;;2.10;;
5898;SDS011;2975;50.956;6.962;2022-09-12T16:50:04;2.40;;;2.22;;
5898;SDS011;2975;50.956;6.962;2022-09-12T16:52:32;2.88;;;2.60;;
5898;SDS011;2975;50.956;6.962;2022-09-12T16:54:58;2.50;;;2.30;;
5898;SDS011;2975;50.956;6.962;2022-09-12T16:57:24;4.13;;;2.30;;
5898;SDS011;2975;50.956;6.962;2022-09-12T16:59:49;2.95;;;2.30;;
5898;SDS011;2975;50.956;6.962;2022-09-12T17:02:15;24.17;;;4.43;;
5898;SDS011;2975;50.956;6.962;2022-09-12T17:04:40;2.53;;;2.17;;
5898;SDS011;2975;50.956;6.962;2022-09-12T17:07:06;3.85;;;2.17;;
5898;SDS011;2975;50.956;6.962;2022-09-12T17:09:33;13.40;;;3.60;;
5898;SDS011;2975;50.956;6.962;2022-09-12T17:11:59;9.40;;;3.10;;
5898;SDS011;2975;50.956;6.962;2022-09-12T17:14:25;3.40;;;2.25;;
5898;SDS011;2975;50.956;6.962;2022-09-12T17:16:50;5.85;;;2.53;;
5898;SDS011;2975;50.956;6.962;2022-09-12T17:19:20;23.90;;;4.20;;
5898;SDS011;2975;50.956;6.962;2022-09-12T17:21:50;12.07;;;3.60;;
5898;SDS011;2975;50.956;6.962;2022-09-12T17:24:16;5.65;;;2.63;;
5898;SDS011;2975;50.956;6.962;2022-09-12T17:26:42;13.90;;;3.70;;
5898;SDS011;2975;50.956;6.962;2022-09-12T17:29:09;13.02;;;4.25;;
5898;SDS011;2975;50.956;6.962;2022-09-12T17:31:36;17.65;;;3.83;;
5898;SDS011;2975;50.956;6.962;2022-09-12T17:34:02;4.38;;;2.80;;
5898;SDS011;2975;50.956;6.962;2022-09-12T17:36:28;7.35;;;3.40;;
5898;SDS011;2975;50.956;6.962;2022-09-12T17:38:56;6.72;;;2.45;;
5898;SDS011;2975;50.956;6.962;2022-09-12T17:41:23;2.92;;;2.28;;
5898;SDS011;2975;50.956;6.962;2022-09-12T17:43:51;4.53;;;2.72;;
5898;SDS011;2975;50.956;6.962;2022-09-12T17:46:19;4.22;;;2.60;;
5898;SDS011;2975;50.956;6.962;2022-09-12T17:48:52;2.70;;;2.50;;
5898;SDS011;2975;50.956;6.962;2022-09-12T17:51:21;4.10;;;2.50;;
5898;SDS011;2975;50.956;6.962;2022-09-12T17:53:54;4.18;;;2.80;;
5898;SDS011;2975;50.956;6.962;2022-09-12T17:56:24;4.70;;;2.75;;
5898;SDS011;2975;50.956;6.962;2022-09-12T17:58:51;3.50;;;2.72;;
5898;SDS011;2975;50.956;6.962;2022-09-12T18:01:18;3.83;;;2.25;;
5898;SDS011;2975;50.956;6.962;2022-09-12T18:04:02;2.70;;;2.50;;
5898;SDS011;2975;50.956;6.962;2022-09-12T18:06:28;9.10;;;3.22;;
5898;SDS011;2975;50.956;6.962;2022-09-12T18:08:55;6.18;;;3.50;;
5898;SDS011;2975;50.956;6.962;2022-09-12T18:11:24;4.82;;;2.65;;
5898;SDS011;2975;50.956;6.962;2022-09-12T18:13:49;4.43;;;3.20;;
5898;SDS011;2975;50.956;6.962;2022-09-12T18:16:15;5.00;;;3.00;;
5898;SDS011;2975;50.956;6.962;2022-09-12T18:18:41;3.30;;;2.47;;